Rothorn — V2AY3 — position and weather

sailwx.info

Track history (hours):
 
Tides and Currents Weather Stations Pressure Air Temp Water Temp Dewpoint Dewpoint Depression Visibility Wind Speed Wind Dir Waves Ship Positions

Rothorn

Last reported at 2018-Feb-15 13:23 UTC. Time now 2018-Feb-17 20:22 UTC.
Position N 09°24' W 079°54'.

Length 157.1 m; beam 23.5 m; draft 9.3 m.

Type: Cargo ship. MMSI: 304128000.

Date/timePositionNaut miles runAvg speedWind from/ knotsBaromVisibWave heightAir tempDewpointWater temp
2018-Feb-15 13:23N 09°24' W 079°54'3 7.1
2018-Feb-15 13:00N 09°21' W 079°53'0 0.2
2018-Feb-15 12:29N 09°21' W 079°53'0 0.0
2018-Feb-15 11:59N 09°21' W 079°53'0 0.0
2018-Feb-15 11:29N 09°21' W 079°53'0 0.0
2018-Feb-15 10:59N 09°21' W 079°53'0 0.0
2018-Feb-15 10:29N 09°21' W 079°53'0 0.0
2018-Feb-15 09:59N 09°21' W 079°53'0 0.0
2018-Feb-15 09:29N 09°21' W 079°53'0 0.0
2018-Feb-15 08:56N 09°21' W 079°53'0 0.0
2018-Feb-15 08:29N 09°21' W 079°53'0 0.0
2018-Feb-15 07:59N 09°21' W 079°53'0 0.8
2018-Feb-15 07:30N 09°22' W 079°53'3 6.4
2018-Feb-15 06:58N 09°25' W 079°54'  
2018-Feb-10 19:32N 25°54' W 079°54'013.7
2018-Feb-10 19:30N 25°54' W 079°54'713.5
2018-Feb-10 18:59N 26°00' W 079°58'714.0
2018-Feb-10 18:30N 26°04' W 080°04'3 5.6
2018-Feb-10 18:00N 26°05' W 080°07'1 1.8
2018-Feb-10 17:29N 26°04' W 080°07'0 0.0
2018-Feb-10 16:59N 26°04' W 080°07'0 0.0
2018-Feb-10 16:29N 26°04' W 080°07'0 0.0
2018-Feb-10 15:59N 26°04' W 080°07'0 0.0
2018-Feb-10 15:29N 26°04' W 080°07'0 0.0
2018-Feb-10 14:59N 26°04' W 080°07'0 0.0
2018-Feb-10 14:29N 26°04' W 080°07'0 0.0
2018-Feb-10 13:59N 26°04' W 080°07'0 0.0
2018-Feb-10 13:29N 26°04' W 080°07'0 0.0
2018-Feb-10 12:59N 26°04' W 080°07'0 0.0
2018-Feb-10 12:29N 26°04' W 080°07'0 0.0
2018-Feb-10 11:59N 26°04' W 080°07'0 0.0
2018-Feb-10 11:29N 26°04' W 080°07'0 0.0
2018-Feb-10 10:59N 26°04' W 080°07'0 0.0
2018-Feb-10 10:29N 26°04' W 080°07'0 0.0
2018-Feb-10 09:59N 26°04' W 080°07'0 0.0
2018-Feb-10 09:29N 26°04' W 080°07'0 0.0
2018-Feb-10 08:56N 26°04' W 080°07'0 0.0
2018-Feb-10 08:29N 26°04' W 080°07'0 0.0
2018-Feb-10 07:59N 26°04' W 080°07'0 0.0
2018-Feb-10 07:29N 26°04' W 080°07'0 0.1
2018-Feb-10 06:59N 26°04' W 080°07'0 0.1
2018-Feb-10 06:29N 26°04' W 080°07'0 0.0
2018-Feb-10 05:59N 26°04' W 080°07'0 0.0
2018-Feb-10 05:29N 26°04' W 080°07'0 0.0
2018-Feb-10 04:59N 26°04' W 080°07'0 0.0
2018-Feb-10 04:29N 26°04' W 080°07'0 0.0
2018-Feb-10 03:59N 26°04' W 080°07'0 0.0
2018-Feb-10 03:26N 26°04' W 080°07'0 0.0
2018-Feb-10 02:59N 26°04' W 080°07'0 0.0
2018-Feb-10 02:29N 26°04' W 080°07'0 0.0
2018-Feb-10 01:59N 26°04' W 080°07'0 0.0
2018-Feb-10 01:29N 26°04' W 080°07'0 0.0
2018-Feb-10 00:59N 26°04' W 080°07'0 0.0
2018-Feb-10 00:29N 26°04' W 080°07'0 0.0
2018-Feb-09 23:59N 26°04' W 080°07'0 0.0
2018-Feb-09 23:29N 26°04' W 080°07'0 0.0
2018-Feb-09 22:59N 26°04' W 080°07'0 0.0
2018-Feb-09 22:44N 26°04' W 080°07'1 0.0
2018-Feb-08 08:30N 26°05' W 080°07'0 0.0
2018-Feb-08 01:29N 26°04' W 080°07'0 0.0
2018-Feb-08 00:59N 26°04' W 080°07'0 0.0
2018-Feb-08 00:29N 26°04' W 080°07'0 0.0
2018-Feb-07 23:59N 26°04' W 080°07'0 0.0
2018-Feb-07 23:29N 26°04' W 080°07'0 0.0
2018-Feb-07 22:59N 26°04' W 080°07'1 2.7
2018-Feb-07 22:30N 26°06' W 080°07'4 8.1
2018-Feb-07 21:59N 26°05' W 080°02'2 3.2
2018-Feb-07 21:31N 26°05' W 080°01'  
Track history (hours):
 
Tides and Currents Weather Stations Pressure Air Temp Water Temp Dewpoint Dewpoint Depression Visibility Wind Speed Wind Dir Waves Ship Positions

Rothorn

Last reported at 2018-Feb-15 13:23 UTC. Time now 2018-Feb-17 20:22 UTC.
Position N 09°24' W 079°54'.

Length 157.1 m; beam 23.5 m; draft 9.3 m.

Type: Cargo ship. MMSI: 304128000.

Date/timePositionNaut miles runAvg speedWind from/ knotsBaromVisibWave heightAir tempDewpointWater temp
2018-Feb-15 13:23N 09°24' W 079°54'3 7.1
2018-Feb-15 13:00N 09°21' W 079°53'0 0.2
2018-Feb-15 12:29N 09°21' W 079°53'0 0.0
2018-Feb-15 11:59N 09°21' W 079°53'0 0.0
2018-Feb-15 11:29N 09°21' W 079°53'0 0.0
2018-Feb-15 10:59N 09°21' W 079°53'0 0.0
2018-Feb-15 10:29N 09°21' W 079°53'0 0.0
2018-Feb-15 09:59N 09°21' W 079°53'0 0.0
2018-Feb-15 09:29N 09°21' W 079°53'0 0.0
2018-Feb-15 08:56N 09°21' W 079°53'0 0.0
2018-Feb-15 08:29N 09°21' W 079°53'0 0.0
2018-Feb-15 07:59N 09°21' W 079°53'0 0.8
2018-Feb-15 07:30N 09°22' W 079°53'3 6.4
2018-Feb-15 06:58N 09°25' W 079°54'  
2018-Feb-10 19:32N 25°54' W 079°54'013.7
2018-Feb-10 19:30N 25°54' W 079°54'713.5
2018-Feb-10 18:59N 26°00' W 079°58'714.0
2018-Feb-10 18:30N 26°04' W 080°04'3 5.6
2018-Feb-10 18:00N 26°05' W 080°07'1 1.8
2018-Feb-10 17:29N 26°04' W 080°07'0 0.0
2018-Feb-10 16:59N 26°04' W 080°07'0 0.0
2018-Feb-10 16:29N 26°04' W 080°07'0 0.0
2018-Feb-10 15:59N 26°04' W 080°07'0 0.0
2018-Feb-10 15:29N 26°04' W 080°07'0 0.0
2018-Feb-10 14:59N 26°04' W 080°07'0 0.0
2018-Feb-10 14:29N 26°04' W 080°07'0 0.0
2018-Feb-10 13:59N 26°04' W 080°07'0 0.0
2018-Feb-10 13:29N 26°04' W 080°07'0 0.0
2018-Feb-10 12:59N 26°04' W 080°07'0 0.0
2018-Feb-10 12:29N 26°04' W 080°07'0 0.0
2018-Feb-10 11:59N 26°04' W 080°07'0 0.0
2018-Feb-10 11:29N 26°04' W 080°07'0 0.0
2018-Feb-10 10:59N 26°04' W 080°07'0 0.0
2018-Feb-10 10:29N 26°04' W 080°07'0 0.0
2018-Feb-10 09:59N 26°04' W 080°07'0 0.0
2018-Feb-10 09:29N 26°04' W 080°07'0 0.0
2018-Feb-10 08:56N 26°04' W 080°07'0 0.0
2018-Feb-10 08:29N 26°04' W 080°07'0 0.0
2018-Feb-10 07:59N 26°04' W 080°07'0 0.0
2018-Feb-10 07:29N 26°04' W 080°07'0 0.1
2018-Feb-10 06:59N 26°04' W 080°07'0 0.1
2018-Feb-10 06:29N 26°04' W 080°07'0 0.0
2018-Feb-10 05:59N 26°04' W 080°07'0 0.0
2018-Feb-10 05:29N 26°04' W 080°07'0 0.0
2018-Feb-10 04:59N 26°04' W 080°07'0 0.0
2018-Feb-10 04:29N 26°04' W 080°07'0 0.0
2018-Feb-10 03:59N 26°04' W 080°07'0 0.0
2018-Feb-10 03:26N 26°04' W 080°07'0 0.0
2018-Feb-10 02:59N 26°04' W 080°07'0 0.0
2018-Feb-10 02:29N 26°04' W 080°07'0 0.0
2018-Feb-10 01:59N 26°04' W 080°07'0 0.0
2018-Feb-10 01:29N 26°04' W 080°07'0 0.0
2018-Feb-10 00:59N 26°04' W 080°07'0 0.0
2018-Feb-10 00:29N 26°04' W 080°07'0 0.0
2018-Feb-09 23:59N 26°04' W 080°07'0 0.0
2018-Feb-09 23:29N 26°04' W 080°07'0 0.0
2018-Feb-09 22:59N 26°04' W 080°07'0 0.0
2018-Feb-09 22:44N 26°04' W 080°07'1 0.0
2018-Feb-08 08:30N 26°05' W 080°07'0 0.0
2018-Feb-08 01:29N 26°04' W 080°07'0 0.0
2018-Feb-08 00:59N 26°04' W 080°07'0 0.0
2018-Feb-08 00:29N 26°04' W 080°07'0 0.0
2018-Feb-07 23:59N 26°04' W 080°07'0 0.0
2018-Feb-07 23:29N 26°04' W 080°07'0 0.0
2018-Feb-07 22:59N 26°04' W 080°07'1 2.7
2018-Feb-07 22:30N 26°06' W 080°07'4 8.1
2018-Feb-07 21:59N 26°05' W 080°02'2 3.2
2018-Feb-07 21:31N 26°05' W 080°01'  

Dump ship's entire track history